createdAt,value
2019-06-15T00:00:15.903Z,983.64
2019-06-15T00:01:15.891Z,983.59
2019-06-15T00:02:15.892Z,983.58
2019-06-15T00:03:15.892Z,983.59
2019-06-15T00:04:15.891Z,983.55
2019-06-15T00:05:15.895Z,983.46
2019-06-15T00:06:15.898Z,983.46
2019-06-15T00:07:15.901Z,983.43
2019-06-15T00:08:15.898Z,983.42
2019-06-15T00:09:15.900Z,983.35
2019-06-15T00:10:15.904Z,983.29
2019-06-15T00:11:15.903Z,983.31
2019-06-15T00:12:15.902Z,983.27
2019-06-15T00:13:15.915Z,983.22
2019-06-15T00:14:15.906Z,983.16
2019-06-15T00:15:15.908Z,983.14
2019-06-15T00:16:15.929Z,983.15
2019-06-15T00:17:15.910Z,983.13
2019-06-15T00:18:15.914Z,983.17
2019-06-15T00:19:15.910Z,983.12
2019-06-15T00:20:15.912Z,983.09
2019-06-15T00:21:15.914Z,983.07
2019-06-15T00:22:15.923Z,983.01
2019-06-15T00:23:15.918Z,982.97
2019-06-15T00:24:15.919Z,982.94
2019-06-15T00:25:15.921Z,982.93
2019-06-15T00:26:15.919Z,982.92
2019-06-15T00:27:15.920Z,982.95
2019-06-15T00:28:15.920Z,982.88
2019-06-15T00:29:15.929Z,982.92
2019-06-15T00:30:15.922Z,982.91
2019-06-15T00:31:15.923Z,982.9
2019-06-15T00:32:15.933Z,982.89
2019-06-15T00:33:15.931Z,982.84
2019-06-15T00:34:15.957Z,982.82
2019-06-15T00:35:15.932Z,982.83
2019-06-15T00:36:15.944Z,982.81
2019-06-15T00:37:15.938Z,982.82
2019-06-15T00:38:15.939Z,982.71
2019-06-15T00:39:15.938Z,982.71
2019-06-15T00:40:15.938Z,982.71
2019-06-15T00:41:15.942Z,982.71
2019-06-15T00:42:15.939Z,982.71
2019-06-15T00:43:15.978Z,982.7
2019-06-15T00:44:15.942Z,982.67
2019-06-15T00:45:15.950Z,982.68
2019-06-15T00:46:15.945Z,982.64
2019-06-15T00:47:15.946Z,982.58
2019-06-15T00:48:15.942Z,982.61
2019-06-15T00:49:16.058Z,982.56
2019-06-15T00:50:15.946Z,982.54
2019-06-15T00:51:15.945Z,982.5
2019-06-15T00:52:15.953Z,982.48
2019-06-15T00:53:15.946Z,982.47
2019-06-15T00:54:15.955Z,982.48
2019-06-15T00:55:15.948Z,982.46
2019-06-15T00:56:15.951Z,982.46
2019-06-15T00:57:15.956Z,982.43
2019-06-15T00:58:15.957Z,982.43
2019-06-15T00:59:15.950Z,982.37
2019-06-15T01:00:15.954Z,982.34
2019-06-15T01:01:15.952Z,982.37
2019-06-15T01:02:15.962Z,982.31
2019-06-15T01:03:15.957Z,982.34
2019-06-15T01:04:15.955Z,982.3
2019-06-15T01:05:15.955Z,982.33
2019-06-15T01:06:15.955Z,982.33
2019-06-15T01:07:15.957Z,982.26
2019-06-15T01:08:15.957Z,982.24
2019-06-15T01:09:15.961Z,982.28
2019-06-15T01:10:15.963Z,982.28
2019-06-15T01:11:15.957Z,982.26
2019-06-15T01:12:15.959Z,982.28
2019-06-15T01:13:15.961Z,982.31
2019-06-15T01:14:15.961Z,982.32
2019-06-15T01:15:15.965Z,982.35
2019-06-15T01:16:15.967Z,982.33
2019-06-15T01:17:15.963Z,982.34
2019-06-15T01:18:15.973Z,982.27
2019-06-15T01:19:15.974Z,982.33
2019-06-15T01:20:15.964Z,982.3
2019-06-15T01:21:15.965Z,982.29
2019-06-15T01:22:15.969Z,982.27
2019-06-15T01:23:15.969Z,982.26
2019-06-15T01:24:15.969Z,982.2
2019-06-15T01:25:15.969Z,982.22
2019-06-15T01:26:15.968Z,982.22
2019-06-15T01:27:15.968Z,982.26
2019-06-15T01:28:15.967Z,982.24
2019-06-15T01:29:15.968Z,982.26
2019-06-15T01:30:15.969Z,982.36
2019-06-15T01:31:15.972Z,982.33
2019-06-15T01:32:15.972Z,982.26
2019-06-15T01:33:15.969Z,982.28
2019-06-15T01:34:15.971Z,982.27
2019-06-15T01:35:15.970Z,982.28
2019-06-15T01:36:15.971Z,982.27
2019-06-15T01:37:15.970Z,982.28
2019-06-15T01:38:15.979Z,982.36
2019-06-15T01:39:15.972Z,982.35
2019-06-15T01:40:15.975Z,982.28
2019-06-15T01:41:15.974Z,982.2
2019-06-15T01:42:15.973Z,982.19
2019-06-15T01:43:15.973Z,982.27
2019-06-15T01:44:15.974Z,982.22
2019-06-15T01:45:15.972Z,982.2
2019-06-15T01:46:15.973Z,982.25
2019-06-15T01:47:15.979Z,982.25
2019-06-15T01:48:15.980Z,982.29
2019-06-15T01:49:15.975Z,982.28
2019-06-15T01:50:15.973Z,982.26
2019-06-15T01:51:15.974Z,982.28
2019-06-15T01:52:15.979Z,982.28
2019-06-15T01:53:15.978Z,982.33
2019-06-15T01:54:15.975Z,982.36
2019-06-15T01:55:20.739Z,982.35
2019-06-15T01:56:15.979Z,982.36
2019-06-15T01:57:15.978Z,982.33
2019-06-15T01:58:15.981Z,982.36
2019-06-15T01:59:15.980Z,982.37
2019-06-15T02:00:15.985Z,982.34
2019-06-15T02:01:15.980Z,982.37
2019-06-15T02:02:15.977Z,982.35
2019-06-15T02:03:15.978Z,982.38
2019-06-15T02:04:15.982Z,982.42
2019-06-15T02:05:15.979Z,982.42
2019-06-15T02:06:15.983Z,982.36
2019-06-15T02:07:15.983Z,982.36
2019-06-15T02:08:15.980Z,982.36
2019-06-15T02:09:15.981Z,982.35
2019-06-15T02:10:15.978Z,982.38
2019-06-15T02:11:15.979Z,982.45
2019-06-15T02:12:16.001Z,982.42
2019-06-15T02:13:15.978Z,982.47
2019-06-15T02:14:15.982Z,982.45
2019-06-15T02:15:15.981Z,982.48
2019-06-15T02:16:15.982Z,982.49
2019-06-15T02:17:15.986Z,982.54
2019-06-15T02:18:15.982Z,982.5
2019-06-15T02:19:15.982Z,982.53
2019-06-15T02:20:15.981Z,982.51
2019-06-15T02:21:15.990Z,982.46
2019-06-15T02:22:15.981Z,982.47
2019-06-15T02:23:15.979Z,982.48
2019-06-15T02:24:15.983Z,982.46
2019-06-15T02:25:15.992Z,982.51
2019-06-15T02:26:15.983Z,982.52
2019-06-15T02:27:15.984Z,982.61
2019-06-15T02:28:15.982Z,982.6
2019-06-15T02:29:15.981Z,982.55
2019-06-15T02:30:15.982Z,982.57
2019-06-15T02:31:15.984Z,982.6
2019-06-15T02:32:15.986Z,982.62
2019-06-15T02:33:15.991Z,982.63
2019-06-15T02:34:15.983Z,982.63
2019-06-15T02:35:15.989Z,982.61
2019-06-15T02:36:15.992Z,982.62
2019-06-15T02:37:15.995Z,982.63
2019-06-15T02:38:15.981Z,982.66
2019-06-15T02:39:15.982Z,982.7
2019-06-15T02:40:15.985Z,982.7
2019-06-15T02:41:15.983Z,982.71
2019-06-15T02:42:15.980Z,982.75
2019-06-15T02:43:15.984Z,982.78
2019-06-15T02:44:15.992Z,982.84
2019-06-15T02:45:15.984Z,982.88
2019-06-15T02:46:15.983Z,982.94
2019-06-15T02:47:15.983Z,982.95
2019-06-15T02:48:15.986Z,983.01
2019-06-15T02:49:15.984Z,983.01
2019-06-15T02:50:15.987Z,983.07
2019-06-15T02:51:15.981Z,983.07
2019-06-15T02:52:15.981Z,983.07
2019-06-15T02:53:15.989Z,983.1
2019-06-15T02:54:15.984Z,983.08
2019-06-15T02:55:15.984Z,983.18
2019-06-15T02:56:15.983Z,983.23
2019-06-15T02:57:15.993Z,983.19
2019-06-15T02:58:15.982Z,983.23
2019-06-15T02:59:15.986Z,983.22
2019-06-15T03:00:15.982Z,983.25
2019-06-15T03:01:15.992Z,983.27
2019-06-15T03:02:15.981Z,983.27
2019-06-15T03:03:15.987Z,983.32
2019-06-15T03:04:15.980Z,983.36
2019-06-15T03:05:15.981Z,983.41
2019-06-15T03:06:15.982Z,983.49
2019-06-15T03:07:15.983Z,983.56
2019-06-15T03:08:15.985Z,983.61
2019-06-15T03:09:15.982Z,983.68
2019-06-15T03:10:15.981Z,983.82
2019-06-15T03:11:15.982Z,983.89
2019-06-15T03:12:15.980Z,983.94
2019-06-15T03:13:15.979Z,984.01
2019-06-15T03:14:15.979Z,984
2019-06-15T03:15:15.981Z,984.06
2019-06-15T03:16:15.984Z,984.16
2019-06-15T03:17:15.980Z,984.14
2019-06-15T03:18:15.978Z,984.16
2019-06-15T03:19:15.982Z,984.19
2019-06-15T03:20:15.982Z,984.17
2019-06-15T03:21:15.979Z,984.25
2019-06-15T03:22:15.983Z,984.26
2019-06-15T03:23:15.976Z,984.26
2019-06-15T03:24:15.985Z,984.27
2019-06-15T03:25:15.995Z,984.33
2019-06-15T03:26:15.986Z,984.36
2019-06-15T03:27:15.979Z,984.41
2019-06-15T03:28:15.978Z,984.46
2019-06-15T03:29:15.976Z,984.45
2019-06-15T03:30:15.977Z,984.42
2019-06-15T03:31:15.975Z,984.54
2019-06-15T03:32:15.977Z,984.52
2019-06-15T03:33:15.977Z,984.59
2019-06-15T03:34:15.978Z,984.61
2019-06-15T03:35:15.977Z,984.68
2019-06-15T03:36:15.976Z,984.69
2019-06-15T03:37:15.982Z,984.68
2019-06-15T03:38:15.975Z,984.67
2019-06-15T03:39:15.981Z,984.72
2019-06-15T03:40:15.974Z,984.76
2019-06-15T03:41:15.975Z,984.76
2019-06-15T03:42:15.993Z,984.75
2019-06-15T03:43:15.974Z,984.75
2019-06-15T03:44:15.970Z,984.79
2019-06-15T03:45:15.969Z,984.84
2019-06-15T03:46:15.973Z,984.78
2019-06-15T03:47:15.972Z,984.88
2019-06-15T03:48:15.970Z,984.9
2019-06-15T03:49:15.986Z,984.94
2019-06-15T03:50:15.978Z,984.87
2019-06-15T03:51:15.970Z,984.89
2019-06-15T03:52:15.967Z,984.88
2019-06-15T03:53:15.971Z,984.97
2019-06-15T03:54:15.969Z,985.03
2019-06-15T03:55:15.975Z,985.04
2019-06-15T03:56:21.411Z,985.12
2019-06-15T03:57:15.969Z,985.19
2019-06-15T03:58:15.965Z,985.21
2019-06-15T03:59:15.970Z,985.32
2019-06-15T04:00:15.969Z,985.39
2019-06-15T04:01:15.968Z,985.51
2019-06-15T04:02:15.968Z,985.61
2019-06-15T04:03:15.968Z,985.63
2019-06-15T04:04:15.967Z,985.67
2019-06-15T04:05:15.968Z,985.79
2019-06-15T04:06:15.975Z,985.85
2019-06-15T04:07:15.969Z,985.87
2019-06-15T04:08:15.967Z,985.95
2019-06-15T04:09:15.972Z,985.96
2019-06-15T04:10:15.968Z,986.05
2019-06-15T04:11:15.967Z,986.04
2019-06-15T04:12:15.970Z,986.03
2019-06-15T04:13:15.969Z,986.12
2019-06-15T04:14:15.971Z,986.06
2019-06-15T04:15:15.973Z,986.05
2019-06-15T04:16:15.983Z,985.97
2019-06-15T04:17:15.975Z,985.94
2019-06-15T04:18:15.974Z,985.94
2019-06-15T04:19:15.985Z,985.9
2019-06-15T04:20:15.980Z,985.94
2019-06-15T04:21:16.013Z,986
2019-06-15T04:22:15.982Z,986.03
2019-06-15T04:23:16.781Z,986.01
2019-06-15T04:24:15.987Z,985.92
2019-06-15T04:25:16.024Z,985.99
2019-06-15T04:26:16.016Z,985.95
2019-06-15T04:27:15.984Z,985.99
2019-06-15T04:28:15.990Z,986.06
2019-06-15T04:29:15.995Z,986.05
2019-06-15T04:30:15.993Z,986.1
2019-06-15T04:31:15.994Z,986.1
2019-06-15T04:32:15.997Z,986.13
2019-06-15T04:33:16.009Z,986.17
2019-06-15T04:34:16.000Z,986.2
2019-06-15T04:35:16.003Z,986.17
2019-06-15T04:36:16.005Z,986.22
2019-06-15T04:37:16.007Z,986.19
2019-06-15T04:38:16.027Z,986.21
2019-06-15T04:39:16.013Z,986.23
2019-06-15T04:40:16.019Z,986.28
2019-06-15T04:41:16.014Z,986.23
2019-06-15T04:42:16.016Z,986.26
2019-06-15T04:43:16.020Z,986.24
2019-06-15T04:44:16.025Z,986.32
2019-06-15T04:45:16.024Z,986.2
2019-06-15T04:46:16.026Z,986.2
2019-06-15T04:47:16.028Z,986.25
2019-06-15T04:48:16.035Z,986.29
2019-06-15T04:49:16.030Z,986.3
2019-06-15T04:50:16.032Z,986.33
2019-06-15T04:51:16.034Z,986.3
2019-06-15T04:52:16.038Z,986.36
2019-06-15T04:53:16.039Z,986.36
2019-06-15T04:54:16.041Z,986.33
2019-06-15T04:55:16.044Z,986.38
2019-06-15T04:56:16.047Z,986.38
2019-06-15T04:57:16.047Z,986.41
2019-06-15T04:58:16.049Z,986.41
2019-06-15T04:59:16.051Z,986.46
2019-06-15T05:00:16.053Z,986.49
2019-06-15T05:01:16.056Z,986.56
2019-06-15T05:02:16.068Z,986.6
2019-06-15T05:03:16.067Z,986.68
2019-06-15T05:04:16.060Z,986.69
2019-06-15T05:05:16.077Z,986.69
2019-06-15T05:06:16.064Z,986.7
2019-06-15T05:07:16.071Z,986.8
2019-06-15T05:08:16.069Z,986.86
2019-06-15T05:09:16.072Z,986.9
2019-06-15T05:10:16.074Z,986.98
2019-06-15T05:11:16.074Z,986.94
2019-06-15T05:12:16.079Z,986.93
2019-06-15T05:13:16.084Z,986.92
2019-06-15T05:14:16.083Z,986.89
2019-06-15T05:15:16.087Z,986.91
2019-06-15T05:16:16.091Z,986.91
2019-06-15T05:17:16.095Z,986.93
2019-06-15T05:18:16.099Z,986.98
2019-06-15T05:19:16.136Z,986.95
2019-06-15T05:20:16.117Z,987.04
2019-06-15T05:21:16.107Z,987.02
2019-06-15T05:22:16.112Z,987.12
2019-06-15T05:23:16.113Z,987.16
2019-06-15T05:24:16.120Z,987.2
2019-06-15T05:25:16.121Z,987.29
2019-06-15T05:26:16.122Z,987.31
2019-06-15T05:27:16.127Z,987.35
2019-06-15T05:28:16.147Z,987.31
2019-06-15T05:29:16.145Z,987.38
2019-06-15T05:30:16.147Z,987.31
2019-06-15T05:31:16.146Z,987.29
2019-06-15T05:32:16.146Z,987.3
2019-06-15T05:33:16.149Z,987.31
2019-06-15T05:34:16.154Z,987.35
2019-06-15T05:35:16.157Z,987.33
2019-06-15T05:36:16.161Z,987.44
2019-06-15T05:37:16.175Z,987.44
2019-06-15T05:38:16.190Z,987.39
2019-06-15T05:39:16.174Z,987.51
2019-06-15T05:40:16.177Z,987.47
2019-06-15T05:41:16.186Z,987.51
2019-06-15T05:42:16.206Z,987.51
2019-06-15T05:43:16.193Z,987.54
2019-06-15T05:44:16.195Z,987.55
2019-06-15T05:45:16.202Z,987.56
2019-06-15T05:46:16.207Z,987.52
2019-06-15T05:47:16.213Z,987.55
2019-06-15T05:48:16.217Z,987.51
2019-06-15T05:49:16.221Z,987.56
2019-06-15T05:50:16.244Z,987.53
2019-06-15T05:51:16.253Z,987.46
2019-06-15T05:52:16.240Z,987.35
2019-06-15T05:53:16.243Z,987.34
2019-06-15T05:54:16.253Z,987.29
2019-06-15T05:55:16.256Z,987.35
2019-06-15T05:56:16.261Z,987.46
2019-06-15T05:57:21.386Z,987.46
2019-06-15T05:58:16.280Z,987.47
2019-06-15T05:59:16.278Z,987.49
2019-06-15T06:00:16.285Z,987.52
2019-06-15T06:01:16.291Z,987.54
2019-06-15T06:02:16.292Z,987.59
2019-06-15T06:03:16.300Z,987.59
2019-06-15T06:04:16.310Z,987.59
2019-06-15T06:05:16.312Z,987.59
2019-06-15T06:06:16.323Z,987.55
2019-06-15T06:07:16.323Z,987.55
2019-06-15T06:08:16.337Z,987.54
2019-06-15T06:09:16.360Z,987.53
2019-06-15T06:10:16.346Z,987.53
2019-06-15T06:11:16.354Z,987.49
2019-06-15T06:12:16.361Z,987.48
2019-06-15T06:13:16.367Z,987.5
2019-06-15T06:14:16.371Z,987.52
2019-06-15T06:15:16.383Z,987.53
2019-06-15T06:16:16.388Z,987.57
2019-06-15T06:17:16.393Z,987.55
2019-06-15T06:18:16.400Z,987.55
2019-06-15T06:19:16.408Z,987.52
2019-06-15T06:20:16.423Z,987.52
2019-06-15T06:21:16.422Z,987.55
2019-06-15T06:22:16.430Z,987.57
2019-06-15T06:23:16.435Z,987.61
2019-06-15T06:24:16.449Z,987.55
2019-06-15T06:25:16.451Z,987.55
2019-06-15T06:26:16.460Z,987.63
2019-06-15T06:27:16.471Z,987.67
2019-06-15T06:28:16.470Z,987.66
2019-06-15T06:29:17.291Z,987.69
2019-06-15T06:30:16.494Z,987.63
2019-06-15T06:31:16.494Z,987.69
2019-06-15T06:32:16.504Z,987.71
2019-06-15T06:33:16.515Z,987.63
2019-06-15T06:34:16.516Z,987.61
2019-06-15T06:35:16.548Z,987.7
2019-06-15T06:36:16.533Z,987.74
2019-06-15T06:37:16.540Z,987.71
2019-06-15T06:38:16.568Z,987.66
2019-06-15T06:39:16.567Z,987.63
2019-06-15T06:40:16.597Z,987.61
2019-06-15T06:41:16.568Z,987.65
2019-06-15T06:42:16.575Z,987.63
2019-06-15T06:43:16.600Z,987.65
2019-06-15T06:44:16.589Z,987.69
2019-06-15T06:45:16.597Z,987.68
2019-06-15T06:46:16.602Z,987.69
2019-06-15T06:47:16.612Z,987.76
2019-06-15T06:48:16.616Z,987.73
2019-06-15T06:49:16.638Z,987.77
2019-06-15T06:50:16.626Z,987.79
2019-06-15T06:51:16.631Z,987.82
2019-06-15T06:52:16.638Z,987.85
2019-06-15T06:53:16.647Z,987.88
2019-06-15T06:54:16.659Z,987.94
2019-06-15T06:55:16.663Z,987.96
2019-06-15T06:56:16.661Z,987.98
2019-06-15T06:57:16.666Z,987.99
2019-06-15T06:58:16.675Z,987.99
2019-06-15T06:59:16.681Z,988.03
2019-06-15T07:00:16.684Z,988.01
2019-06-15T07:01:16.686Z,988.04
2019-06-15T07:02:16.692Z,988.06
2019-06-15T07:03:16.698Z,988.07
2019-06-15T07:04:16.701Z,988.15
2019-06-15T07:05:16.706Z,988.11
2019-06-15T07:06:16.714Z,988.13
2019-06-15T07:07:16.721Z,988.16
2019-06-15T07:08:16.727Z,988.12
2019-06-15T07:09:16.726Z,988.15
2019-06-15T07:10:16.731Z,988.16
2019-06-15T07:11:16.735Z,988.24
2019-06-15T07:12:16.755Z,988.36
2019-06-15T07:13:16.746Z,988.48
2019-06-15T07:14:16.766Z,988.35
2019-06-15T07:15:16.759Z,988.33
2019-06-15T07:16:16.764Z,988.41
2019-06-15T07:17:16.763Z,988.43
2019-06-15T07:18:16.775Z,988.45
2019-06-15T07:19:16.771Z,988.48
2019-06-15T07:20:16.784Z,988.51
2019-06-15T07:21:16.785Z,988.53
2019-06-15T07:22:16.787Z,988.59
2019-06-15T07:23:16.805Z,988.73
2019-06-15T07:24:16.796Z,988.58
2019-06-15T07:25:16.801Z,988.62
2019-06-15T07:26:16.805Z,988.64
2019-06-15T07:27:16.807Z,988.6
2019-06-15T07:28:16.892Z,988.6
2019-06-15T07:29:16.826Z,988.61
2019-06-15T07:30:16.822Z,988.61
2019-06-15T07:31:16.859Z,988.68
2019-06-15T07:32:16.836Z,988.75
2019-06-15T07:33:16.863Z,988.74
2019-06-15T07:34:16.850Z,988.77
2019-06-15T07:35:16.850Z,988.91
2019-06-15T07:36:16.850Z,988.74
2019-06-15T07:37:16.856Z,988.81
2019-06-15T07:38:16.857Z,988.81
2019-06-15T07:39:16.864Z,988.8
2019-06-15T07:40:16.865Z,988.8
2019-06-15T07:41:16.871Z,988.77
2019-06-15T07:42:16.873Z,988.96
2019-06-15T07:43:16.878Z,988.95
2019-06-15T07:44:16.883Z,988.87
2019-06-15T07:45:16.893Z,988.9
2019-06-15T07:46:16.913Z,988.89
2019-06-15T07:47:16.900Z,988.91
2019-06-15T07:48:16.919Z,988.85
2019-06-15T07:49:16.909Z,988.81
2019-06-15T07:50:16.912Z,988.78
2019-06-15T07:51:16.921Z,988.85
2019-06-15T07:52:16.932Z,988.87
2019-06-15T07:53:16.935Z,988.95
2019-06-15T07:54:16.953Z,988.91
2019-06-15T07:55:16.943Z,988.98
2019-06-15T07:56:16.943Z,989.02
2019-06-15T07:57:16.946Z,988.95
2019-06-15T07:58:24.411Z,988.84
2019-06-15T07:59:16.957Z,988.87
2019-06-15T08:00:16.964Z,988.88
2019-06-15T08:01:16.969Z,988.83
2019-06-15T08:02:16.977Z,988.91
2019-06-15T08:03:16.991Z,988.86
2019-06-15T08:04:16.992Z,988.97
2019-06-15T08:05:17.001Z,988.9
2019-06-15T08:06:17.001Z,988.92
2019-06-15T08:07:17.003Z,988.98
2019-06-15T08:08:17.013Z,988.97
2019-06-15T08:09:17.018Z,988.94
2019-06-15T08:10:17.025Z,988.89
2019-06-15T08:11:17.027Z,988.8
2019-06-15T08:12:17.046Z,988.81
2019-06-15T08:13:17.064Z,988.88
2019-06-15T08:14:17.048Z,988.9
2019-06-15T08:15:17.058Z,988.97
2019-06-15T08:16:17.058Z,988.95
2019-06-15T08:17:17.066Z,988.97
2019-06-15T08:18:17.070Z,988.91
2019-06-15T08:19:17.110Z,988.89
2019-06-15T08:20:17.084Z,988.91
2019-06-15T08:21:17.087Z,988.99
2019-06-15T08:22:17.105Z,989
2019-06-15T08:23:17.113Z,989.07
2019-06-15T08:24:17.107Z,989.03
2019-06-15T08:25:17.118Z,989.07
2019-06-15T08:26:17.120Z,989.14
2019-06-15T08:27:17.126Z,989.2
2019-06-15T08:28:17.129Z,989.15
2019-06-15T08:29:17.144Z,989.21
2019-06-15T08:30:17.141Z,989.29
2019-06-15T08:31:17.153Z,989.39
2019-06-15T08:32:17.159Z,989.28
2019-06-15T08:33:17.160Z,989.34
2019-06-15T08:34:17.169Z,989.29
2019-06-15T08:35:17.178Z,989.28
2019-06-15T08:36:17.213Z,989.27
2019-06-15T08:37:17.187Z,989.18
2019-06-15T08:38:17.198Z,989.27
2019-06-15T08:39:17.205Z,989.23
2019-06-15T08:40:17.228Z,989.26
2019-06-15T08:41:17.252Z,989.22
2019-06-15T08:42:17.230Z,989.16
2019-06-15T08:43:17.232Z,989.29
2019-06-15T08:44:17.237Z,989.33
2019-06-15T08:45:17.246Z,989.22
2019-06-15T08:46:17.254Z,989.23
2019-06-15T08:47:17.259Z,989.25
2019-06-15T08:48:17.266Z,989.31
2019-06-15T08:49:17.274Z,989.33
2019-06-15T08:50:17.290Z,989.43
2019-06-15T08:51:17.300Z,989.48
2019-06-15T08:52:17.294Z,989.5
2019-06-15T08:53:17.299Z,989.47
2019-06-15T08:54:17.316Z,989.54
2019-06-15T08:55:17.313Z,989.58
2019-06-15T08:56:17.330Z,989.52
2019-06-15T08:57:17.328Z,989.5
2019-06-15T08:58:17.334Z,989.53
2019-06-15T08:59:17.337Z,989.46
2019-06-15T09:00:17.363Z,989.48
2019-06-15T09:01:17.349Z,989.51
2019-06-15T09:02:17.359Z,989.42
2019-06-15T09:03:17.368Z,989.4
2019-06-15T09:04:17.370Z,989.43
2019-06-15T09:05:17.378Z,989.37
2019-06-15T09:06:17.382Z,989.37
2019-06-15T09:07:17.388Z,989.36
2019-06-15T09:08:17.398Z,989.36
2019-06-15T09:09:17.400Z,989.44
2019-06-15T09:10:17.468Z,989.46
2019-06-15T09:11:17.423Z,989.53
2019-06-15T09:12:17.421Z,989.52
2019-06-15T09:13:17.423Z,989.52
2019-06-15T09:14:17.433Z,989.54
2019-06-15T09:15:17.447Z,989.49
2019-06-15T09:16:17.445Z,989.44
2019-06-15T09:17:17.446Z,989.51
2019-06-15T09:18:17.451Z,989.44
2019-06-15T09:19:17.475Z,989.44
2019-06-15T09:20:17.504Z,989.44
2019-06-15T09:21:17.483Z,989.37
2019-06-15T09:22:17.482Z,989.41
2019-06-15T09:23:17.483Z,989.47
2019-06-15T09:24:17.485Z,989.47
2019-06-15T09:25:17.495Z,989.47
2019-06-15T09:26:17.498Z,989.54
2019-06-15T09:27:17.504Z,989.52
2019-06-15T09:28:17.516Z,989.49
2019-06-15T09:29:17.514Z,989.44
2019-06-15T09:30:17.559Z,989.47
2019-06-15T09:31:17.548Z,989.46
2019-06-15T09:32:17.550Z,989.45
2019-06-15T09:33:17.570Z,989.42
2019-06-15T09:34:19.093Z,989.42
2019-06-15T09:35:17.545Z,989.41
2019-06-15T09:36:17.552Z,989.38
2019-06-15T09:37:17.556Z,989.46
2019-06-15T09:38:17.559Z,989.55
2019-06-15T09:39:17.570Z,989.55
2019-06-15T09:40:17.576Z,989.48
2019-06-15T09:41:17.590Z,989.42
2019-06-15T09:42:17.584Z,989.46
2019-06-15T09:43:17.605Z,989.49
2019-06-15T09:44:17.597Z,989.5
2019-06-15T09:45:17.598Z,989.55
2019-06-15T09:46:17.607Z,989.44
2019-06-15T09:47:17.611Z,989.55
2019-06-15T09:48:17.623Z,989.49
2019-06-15T09:49:17.635Z,989.68
2019-06-15T09:50:17.630Z,989.67
2019-06-15T09:51:17.633Z,989.7
2019-06-15T09:52:17.636Z,989.66
2019-06-15T09:53:17.642Z,989.69
2019-06-15T09:54:17.649Z,989.56
2019-06-15T09:55:17.659Z,989.6
2019-06-15T09:56:17.658Z,989.65
2019-06-15T09:57:17.664Z,989.68
2019-06-15T09:58:17.670Z,989.78
2019-06-15T09:59:25.801Z,989.81
2019-06-15T10:00:17.687Z,989.7
2019-06-15T10:01:17.687Z,989.65
2019-06-15T10:02:17.702Z,989.61
2019-06-15T10:03:17.699Z,989.64
2019-06-15T10:04:17.721Z,989.69
2019-06-15T10:05:17.717Z,989.75
2019-06-15T10:06:17.718Z,989.8
2019-06-15T10:07:17.718Z,989.85
2019-06-15T10:08:17.723Z,989.82
2019-06-15T10:09:17.734Z,989.83
2019-06-15T10:10:17.739Z,989.77
2019-06-15T10:11:17.741Z,989.79
2019-06-15T10:12:17.748Z,989.77
2019-06-15T10:13:17.751Z,989.78
2019-06-15T10:14:17.758Z,989.75
2019-06-15T10:15:17.764Z,989.84
2019-06-15T10:16:17.772Z,989.92
2019-06-15T10:17:17.774Z,989.94
2019-06-15T10:18:17.777Z,989.93
2019-06-15T10:19:17.785Z,989.94
2019-06-15T10:20:17.794Z,990
2019-06-15T10:21:17.799Z,989.99
2019-06-15T10:22:17.809Z,989.92
2019-06-15T10:23:17.814Z,989.82
2019-06-15T10:24:17.821Z,989.83
2019-06-15T10:25:17.889Z,989.8
2019-06-15T10:26:17.825Z,989.82
2019-06-15T10:27:17.829Z,989.77
2019-06-15T10:28:17.833Z,989.82
2019-06-15T10:29:17.867Z,989.8
2019-06-15T10:30:17.848Z,989.78
2019-06-15T10:31:17.877Z,989.84
2019-06-15T10:32:17.857Z,989.93
2019-06-15T10:33:17.860Z,989.85
2019-06-15T10:34:17.886Z,989.87
2019-06-15T10:35:17.890Z,989.9
2019-06-15T10:36:17.883Z,989.92
2019-06-15T10:37:17.891Z,989.94
2019-06-15T10:38:17.888Z,990.01
2019-06-15T10:39:17.893Z,989.97
2019-06-15T10:40:17.899Z,989.9
2019-06-15T10:41:17.902Z,989.93
2019-06-15T10:42:17.911Z,989.92
2019-06-15T10:43:17.912Z,989.89
2019-06-15T10:44:17.918Z,989.98
2019-06-15T10:45:17.930Z,990.06
2019-06-15T10:46:17.928Z,990.11
2019-06-15T10:47:17.934Z,990.15
2019-06-15T10:48:17.936Z,990.1
2019-06-15T10:49:17.947Z,990.03
2019-06-15T10:50:17.953Z,990.08
2019-06-15T10:51:17.964Z,990.05
2019-06-15T10:52:17.962Z,990.01
2019-06-15T10:53:17.964Z,990.11
2019-06-15T10:54:17.970Z,990.09
2019-06-15T10:55:19.577Z,990.1
2019-06-15T10:56:17.985Z,990.11
2019-06-15T10:57:17.982Z,990.12
2019-06-15T10:58:17.998Z,990.15
2019-06-15T10:59:17.991Z,990.14
2019-06-15T11:00:18.016Z,990.12
2019-06-15T11:01:18.021Z,990.11
2019-06-15T11:02:18.048Z,989.98
2019-06-15T11:03:18.036Z,989.94
2019-06-15T11:04:18.030Z,989.91
2019-06-15T11:05:18.036Z,989.96
2019-06-15T11:06:18.028Z,989.97
2019-06-15T11:07:18.043Z,990.01
2019-06-15T11:08:18.036Z,989.98
2019-06-15T11:09:18.042Z,989.92
2019-06-15T11:10:18.066Z,989.91
2019-06-15T11:11:20.875Z,989.97
2019-06-15T11:12:18.062Z,989.98
2019-06-15T11:13:18.060Z,989.97
2019-06-15T11:14:18.076Z,990.04
2019-06-15T11:15:18.088Z,990.08
2019-06-15T11:16:18.079Z,990.08
2019-06-15T11:17:18.110Z,990.16
2019-06-15T11:18:18.086Z,990.08
2019-06-15T11:19:18.092Z,990.19
2019-06-15T11:20:18.111Z,990.14
2019-06-15T11:21:18.100Z,990.19
2019-06-15T11:22:18.108Z,990.16
2019-06-15T11:23:18.110Z,990.19
2019-06-15T11:24:18.118Z,990.19
2019-06-15T11:25:18.124Z,990.15
2019-06-15T11:26:18.127Z,990.19
2019-06-15T11:27:18.128Z,990.12
2019-06-15T11:28:18.134Z,990.07
2019-06-15T11:29:18.149Z,990.11
2019-06-15T11:30:18.155Z,990.12
2019-06-15T11:31:18.151Z,990.2
2019-06-15T11:32:18.155Z,990.25
2019-06-15T11:33:18.164Z,990.27
2019-06-15T11:34:18.164Z,990.27
2019-06-15T11:35:18.171Z,990.28
2019-06-15T11:36:18.175Z,990.27
2019-06-15T11:37:18.183Z,990.23
2019-06-15T11:38:18.184Z,990.22
2019-06-15T11:39:18.199Z,990.13
2019-06-15T11:40:18.199Z,990.12
2019-06-15T11:41:18.198Z,990.17
2019-06-15T11:42:18.201Z,990.19
2019-06-15T11:43:18.211Z,990.2
2019-06-15T11:44:18.217Z,990.19
2019-06-15T11:45:18.222Z,990.13
2019-06-15T11:46:18.230Z,990.14
2019-06-15T11:47:18.229Z,990.14
2019-06-15T11:48:18.235Z,990.2
2019-06-15T11:49:18.246Z,990.21
2019-06-15T11:50:18.246Z,990.23
2019-06-15T11:51:18.248Z,990.17
2019-06-15T11:52:18.265Z,990.3
2019-06-15T11:53:18.259Z,990.32
2019-06-15T11:54:18.287Z,990.32
2019-06-15T11:55:19.993Z,990.36
2019-06-15T11:56:18.270Z,990.47
2019-06-15T11:57:18.273Z,990.39
2019-06-15T11:58:18.278Z,990.42
2019-06-15T11:59:18.290Z,990.41
2019-06-15T12:00:30.646Z,990.34
2019-06-15T12:01:19.025Z,990.38
2019-06-15T12:02:18.297Z,990.37
2019-06-15T12:03:18.313Z,990.33
2019-06-15T12:04:18.385Z,990.27
2019-06-15T12:05:18.321Z,990.32
2019-06-15T12:06:18.314Z,990.22
2019-06-15T12:07:18.332Z,990.25
2019-06-15T12:08:18.325Z,990.27
2019-06-15T12:09:18.329Z,990.3
2019-06-15T12:10:18.343Z,990.32
2019-06-15T12:11:18.344Z,990.24
2019-06-15T12:12:18.346Z,990.19
2019-06-15T12:13:18.351Z,990.17
2019-06-15T12:14:18.356Z,990.24
2019-06-15T12:15:18.361Z,990.22
2019-06-15T12:16:18.374Z,990.25
2019-06-15T12:17:18.371Z,990.21
2019-06-15T12:18:18.372Z,990.17
2019-06-15T12:19:18.376Z,990.18
2019-06-15T12:20:18.398Z,990.19
2019-06-15T12:21:18.383Z,990.15
2019-06-15T12:22:18.480Z,990.26
2019-06-15T12:23:18.429Z,990.25
2019-06-15T12:24:18.505Z,990.21
2019-06-15T12:25:18.402Z,990.23
2019-06-15T12:26:18.406Z,990.23
2019-06-15T12:27:18.412Z,990.31
2019-06-15T12:28:18.421Z,990.31
2019-06-15T12:29:18.421Z,990.23
2019-06-15T12:30:18.430Z,990.29